Current Weather

Hillsdale Muni

Hillsdale, Michigan (KJYM)

Report from: Wednesday, April 24, 2024 11:35 PM EDT
Current time: Thursday, April 25, 2024 12:08 AM EDT

Nearby weather – Weather history – Daily summaries
Weather forecast

Temperature-0.4°C (31.3°F)
Dew point-3.7°C (25.3°F)
Winds Calm
Visibility10 mi. (16.1 km)
Clouds Sky clear
Altimeter30.28 in.Hg (1025 mB)
Relative humidity78 %
Density altitude-2,224 ft. (-678 m)
Remarks Fully automated report
Automated weather observing station with precipitation discriminator
Flight conditions Visual Meteorological Conditions
Raw dataKJYM 250335Z AUTO 00000KT 10SM CLR 00/M04 A3028 RMK AO2 T10041037
An error has occurred. This application may no longer respond until reloaded. Reload 🗙